createdAt,value
2017-07-11T00:00:10.640Z,22.98
2017-07-11T00:01:12.447Z,22.97
2017-07-11T00:02:14.317Z,22.90
2017-07-11T00:03:16.194Z,22.91
2017-07-11T00:04:18.091Z,22.94
2017-07-11T00:05:32.282Z,22.91
2017-07-11T00:06:34.150Z,22.90
2017-07-11T00:07:36.028Z,22.80
2017-07-11T00:08:37.901Z,22.90
2017-07-11T00:09:39.732Z,22.90
2017-07-11T00:10:41.562Z,22.79
2017-07-11T00:11:43.437Z,22.76
2017-07-11T00:12:45.328Z,22.70
2017-07-11T00:13:47.203Z,22.76
2017-07-11T00:15:01.367Z,22.73
2017-07-11T00:16:03.246Z,22.70
2017-07-11T00:17:05.139Z,22.79
2017-07-11T00:18:07.029Z,22.68
2017-07-11T00:19:08.842Z,22.55
2017-07-11T00:20:10.675Z,22.57
2017-07-11T00:21:12.553Z,22.46
2017-07-11T00:22:14.444Z,22.47
2017-07-11T00:23:16.317Z,22.39
2017-07-11T00:24:30.484Z,22.21
2017-07-11T00:25:32.359Z,22.10
2017-07-11T00:26:34.235Z,22.14
2017-07-11T00:27:36.134Z,22.15
2017-07-11T00:28:37.965Z,22.09
2017-07-11T00:29:39.795Z,22.14
2017-07-11T00:30:41.668Z,22.14
2017-07-11T00:31:43.559Z,22.15
2017-07-11T00:32:45.430Z,22.15
2017-07-11T00:33:59.574Z,22.12
2017-07-11T00:35:01.455Z,22.06
2017-07-11T00:36:03.347Z,22.00
2017-07-11T00:37:05.221Z,22.12
2017-07-11T00:38:07.031Z,22.12
2017-07-11T00:39:08.862Z,22.17
2017-07-11T00:40:10.750Z,22.17
2017-07-11T00:41:12.632Z,22.17
2017-07-11T00:42:14.499Z,22.10
2017-07-11T00:43:28.647Z,22.15
2017-07-11T00:44:30.518Z,22.12
2017-07-11T00:45:32.409Z,22.15
2017-07-11T00:46:34.280Z,22.15
2017-07-11T00:47:36.095Z,22.10
2017-07-11T00:48:37.924Z,22.15
2017-07-11T00:49:39.800Z,22.05
2017-07-11T00:50:41.665Z,21.99
2017-07-11T00:51:43.543Z,22.06
2017-07-11T00:52:57.714Z,21.94
2017-07-11T00:53:59.606Z,21.80
2017-07-11T00:55:01.481Z,21.72
2017-07-11T00:56:03.355Z,21.83
2017-07-11T00:57:05.162Z,21.92
2017-07-11T00:58:06.970Z,21.86
2017-07-11T00:59:08.842Z,21.82
2017-07-11T01:00:10.712Z,21.79
2017-07-11T01:01:12.579Z,21.80
2017-07-11T01:02:26.726Z,21.84
2017-07-11T01:03:28.604Z,21.77
2017-07-11T01:04:30.495Z,21.92
2017-07-11T01:05:32.385Z,21.96
2017-07-11T01:06:34.214Z,22.05
2017-07-11T01:07:36.025Z,22.10
2017-07-11T01:08:37.919Z,22.12
2017-07-11T01:09:39.813Z,22.18
2017-07-11T01:10:41.684Z,22.27
2017-07-11T01:11:55.832Z,22.40
2017-07-11T01:12:57.706Z,22.42
2017-07-11T01:13:59.575Z,22.46
2017-07-11T01:15:01.469Z,22.49
2017-07-11T01:16:03.276Z,22.43
2017-07-11T01:17:05.084Z,22.52
2017-07-11T01:18:06.953Z,22.55
2017-07-11T01:19:08.878Z,22.55
2017-07-11T01:20:10.695Z,22.57
2017-07-11T01:21:24.864Z,22.67
2017-07-11T01:22:26.748Z,22.61
2017-07-11T01:23:28.625Z,22.60
2017-07-11T01:24:30.518Z,22.61
2017-07-11T01:25:32.352Z,22.43
2017-07-11T01:26:34.181Z,22.43
2017-07-11T01:27:36.075Z,22.54
2017-07-11T01:28:37.969Z,22.55
2017-07-11T01:29:39.842Z,22.55
2017-07-11T01:30:54.009Z,22.61
2017-07-11T01:31:55.883Z,22.64
2017-07-11T01:32:57.756Z,22.68
2017-07-11T01:33:59.652Z,22.67
2017-07-11T01:35:01.486Z,22.73
2017-07-11T01:36:03.313Z,22.65
2017-07-11T01:37:05.187Z,22.67
2017-07-11T01:38:07.078Z,22.68
2017-07-11T01:39:08.950Z,22.58
2017-07-11T01:40:23.120Z,22.51
2017-07-11T01:41:25.009Z,22.42
2017-07-11T01:42:26.883Z,22.18
2017-07-11T01:43:28.755Z,22.18
2017-07-11T01:44:30.566Z,22.10
2017-07-11T01:45:32.399Z,22.03
2017-07-11T01:46:34.287Z,21.96
2017-07-11T01:47:36.159Z,22.00
2017-07-11T01:48:38.045Z,21.82
2017-07-11T01:49:52.187Z,21.83
2017-07-11T01:50:54.055Z,21.61
2017-07-11T01:51:55.944Z,21.58
2017-07-11T01:52:57.815Z,21.50
2017-07-11T01:53:59.623Z,21.37
2017-07-11T01:55:01.430Z,21.37
2017-07-11T01:56:03.305Z,21.38
2017-07-11T01:57:05.178Z,21.42
2017-07-11T01:58:07.067Z,21.38
2017-07-11T01:59:21.216Z,21.35
2017-07-11T02:00:23.084Z,21.31
2017-07-11T02:01:24.976Z,21.37
2017-07-11T02:02:26.847Z,21.24
2017-07-11T02:03:28.654Z,21.34
2017-07-11T02:04:30.462Z,21.38
2017-07-11T02:05:32.335Z,21.46
2017-07-11T02:06:34.231Z,21.54
2017-07-11T02:07:36.122Z,21.50
2017-07-11T02:08:50.336Z,21.47
2017-07-11T02:09:52.207Z,21.53
2017-07-11T02:10:54.101Z,21.50
2017-07-11T02:11:55.994Z,21.44
2017-07-11T02:12:57.828Z,21.32
2017-07-11T02:13:59.632Z,21.28
2017-07-11T02:15:01.505Z,21.19
2017-07-11T02:16:03.402Z,21.14
2017-07-11T02:17:05.294Z,21.17
2017-07-11T02:18:19.439Z,21.16
2017-07-11T02:19:21.307Z,21.01
2017-07-11T02:20:23.182Z,21.06
2017-07-11T02:21:25.076Z,21.03
2017-07-11T02:22:26.876Z,21.07
2017-07-11T02:23:28.687Z,20.97
2017-07-11T02:24:30.560Z,21.01
2017-07-11T02:25:32.471Z,20.89
2017-07-11T02:26:34.345Z,20.85
2017-07-11T02:27:48.486Z,20.87
2017-07-11T02:28:50.356Z,20.97
2017-07-11T02:29:52.222Z,20.91
2017-07-11T02:30:54.088Z,20.88
2017-07-11T02:31:55.895Z,20.85
2017-07-11T02:32:57.700Z,20.97
2017-07-11T02:33:59.568Z,20.89
2017-07-11T02:35:01.441Z,20.91
2017-07-11T02:36:03.314Z,20.91
2017-07-11T02:37:17.480Z,20.99
2017-07-11T02:38:19.374Z,20.89
2017-07-11T02:39:21.249Z,20.85
2017-07-11T02:40:23.142Z,20.87
2017-07-11T02:41:24.972Z,20.87
2017-07-11T02:42:26.802Z,20.84
2017-07-11T02:43:28.677Z,20.82
2017-07-11T02:44:30.583Z,20.76
2017-07-11T02:45:32.474Z,20.82
2017-07-11T02:46:46.602Z,20.80
2017-07-11T02:47:48.677Z,20.82
2017-07-11T02:48:50.512Z,20.72
2017-07-11T02:49:52.406Z,20.74
2017-07-11T02:50:54.285Z,20.69
2017-07-11T02:51:56.138Z,20.72
2017-07-11T02:52:57.979Z,20.80
2017-07-11T02:53:59.793Z,20.85
2017-07-11T02:55:01.666Z,20.76
2017-07-11T02:56:15.881Z,20.77
2017-07-11T02:57:17.776Z,20.85
2017-07-11T02:58:19.675Z,20.89
2017-07-11T02:59:21.546Z,20.85
2017-07-11T03:00:23.356Z,20.91
2017-07-11T03:01:25.160Z,20.92
2017-07-11T03:02:27.043Z,20.91
2017-07-11T03:03:28.940Z,20.89
2017-07-11T03:04:30.810Z,20.94
2017-07-11T03:05:44.956Z,20.87
2017-07-11T03:06:46.828Z,20.91
2017-07-11T03:07:48.699Z,20.85
2017-07-11T03:08:50.576Z,20.82
2017-07-11T03:09:52.410Z,20.85
2017-07-11T03:10:54.222Z,20.98
2017-07-11T03:11:56.097Z,20.82
2017-07-11T03:12:57.931Z,20.79
2017-07-11T03:13:59.773Z,20.91
2017-07-11T03:15:13.945Z,20.88
2017-07-11T03:16:15.843Z,20.77
2017-07-11T03:17:17.741Z,20.91
2017-07-11T03:18:19.640Z,20.89
2017-07-11T03:19:21.468Z,20.85
2017-07-11T03:20:23.282Z,20.94
2017-07-11T03:21:25.156Z,20.94
2017-07-11T03:22:27.030Z,20.95
2017-07-11T03:23:28.910Z,20.99
2017-07-11T03:24:43.079Z,21.01
2017-07-11T03:25:44.981Z,21.06
2017-07-11T03:26:46.882Z,21.06
2017-07-11T03:27:48.781Z,21.10
2017-07-11T03:28:50.611Z,21.07
2017-07-11T03:29:52.425Z,21.12
2017-07-11T03:30:54.327Z,21.14
2017-07-11T03:31:56.230Z,21.12
2017-07-11T03:32:58.099Z,21.10
2017-07-11T03:34:12.247Z,21.14
2017-07-11T03:35:14.124Z,21.09
2017-07-11T03:36:16.021Z,21.16
2017-07-11T03:37:17.897Z,21.19
2017-07-11T03:38:19.706Z,21.27
2017-07-11T03:39:21.559Z,21.32
2017-07-11T03:40:23.401Z,21.32
2017-07-11T03:41:25.209Z,21.40
2017-07-11T03:42:27.022Z,21.38
2017-07-11T03:43:41.170Z,21.38
2017-07-11T03:44:43.046Z,21.29
2017-07-11T03:45:44.946Z,21.25
2017-07-11T03:46:46.841Z,21.29
2017-07-11T03:47:48.658Z,21.35
2017-07-11T03:48:50.490Z,21.44
2017-07-11T03:49:52.372Z,21.43
2017-07-11T03:50:54.272Z,21.46
2017-07-11T03:51:56.151Z,21.46
2017-07-11T03:53:10.301Z,21.52
2017-07-11T03:54:12.177Z,21.47
2017-07-11T03:55:14.055Z,21.50
2017-07-11T03:56:15.957Z,21.42
2017-07-11T03:57:17.787Z,21.43
2017-07-11T03:58:19.598Z,21.47
2017-07-11T03:59:21.478Z,21.56
2017-07-11T04:00:23.379Z,21.61
2017-07-11T04:01:25.279Z,21.54
2017-07-11T04:02:39.454Z,21.65
2017-07-11T04:03:41.333Z,21.64
2017-07-11T04:04:43.231Z,21.69
2017-07-11T04:05:45.109Z,21.71
2017-07-11T04:06:46.916Z,21.72
2017-07-11T04:07:48.730Z,21.64
2017-07-11T04:08:50.611Z,21.77
2017-07-11T04:09:52.508Z,21.82
2017-07-11T04:10:54.388Z,21.91
2017-07-11T04:12:08.536Z,21.98
2017-07-11T04:13:10.432Z,22.06
2017-07-11T04:14:12.310Z,22.14
2017-07-11T04:15:14.190Z,22.10
2017-07-11T04:16:16.026Z,22.12
2017-07-11T04:17:17.866Z,22.21
2017-07-11T04:18:19.769Z,22.22
2017-07-11T04:19:21.669Z,22.21
2017-07-11T04:20:23.546Z,22.18
2017-07-11T04:21:37.719Z,22.21
2017-07-11T04:22:39.593Z,22.31
2017-07-11T04:23:41.496Z,22.33
2017-07-11T04:24:43.394Z,22.27
2017-07-11T04:25:45.228Z,22.33
2017-07-11T04:26:47.042Z,22.30
2017-07-11T04:27:48.945Z,22.42
2017-07-11T04:28:50.843Z,22.40
2017-07-11T04:29:52.722Z,22.30
2017-07-11T04:31:06.890Z,22.28
2017-07-11T04:32:08.770Z,22.18
2017-07-11T04:33:10.674Z,22.18
2017-07-11T04:34:12.572Z,22.10
2017-07-11T04:35:14.405Z,22.06
2017-07-11T04:36:16.217Z,22.02
2017-07-11T04:37:18.099Z,22.00
2017-07-11T04:38:19.974Z,22.03
2017-07-11T04:39:21.871Z,21.96
2017-07-11T04:40:36.020Z,21.90
2017-07-11T04:41:37.918Z,21.92
2017-07-11T04:42:39.793Z,21.86
2017-07-11T04:43:41.665Z,21.96
2017-07-11T04:44:43.479Z,22.02
2017-07-11T04:45:45.315Z,22.03
2017-07-11T04:46:47.193Z,21.98
2017-07-11T04:47:49.096Z,21.96
2017-07-11T04:48:50.977Z,22.03
2017-07-11T04:50:05.143Z,22.06
2017-07-11T04:51:07.041Z,22.15
2017-07-11T04:52:08.936Z,22.20
2017-07-11T04:53:10.811Z,22.28
2017-07-11T04:54:12.627Z,22.20
2017-07-11T04:55:14.439Z,22.24
2017-07-11T04:56:16.317Z,22.25
2017-07-11T04:57:18.220Z,22.21
2017-07-11T04:58:20.112Z,22.12
2017-07-11T04:59:34.261Z,22.20
2017-07-11T05:00:36.138Z,22.18
2017-07-11T05:01:38.042Z,22.24
2017-07-11T05:02:39.936Z,22.27
2017-07-11T05:03:41.757Z,22.37
2017-07-11T05:04:43.591Z,22.37
2017-07-11T05:05:45.491Z,22.39
2017-07-11T05:06:47.393Z,22.43
2017-07-11T05:07:49.294Z,22.58
2017-07-11T05:09:03.462Z,22.55
2017-07-11T05:10:05.361Z,22.55
2017-07-11T05:11:07.243Z,22.60
2017-07-11T05:12:09.140Z,22.72
2017-07-11T05:13:10.952Z,22.77
2017-07-11T05:14:12.770Z,22.86
2017-07-11T05:15:14.605Z,22.90
2017-07-11T05:16:16.418Z,23.00
2017-07-11T05:17:18.296Z,23.01
2017-07-11T05:18:32.442Z,23.13
2017-07-11T05:19:34.319Z,23.23
2017-07-11T05:20:36.215Z,23.33
2017-07-11T05:21:38.094Z,23.35
2017-07-11T05:22:39.905Z,23.47
2017-07-11T05:23:41.724Z,23.54
2017-07-11T05:24:43.623Z,23.51
2017-07-11T05:25:45.522Z,23.58
2017-07-11T05:26:47.400Z,23.60
2017-07-11T05:28:01.549Z,23.54
2017-07-11T05:29:03.450Z,23.60
2017-07-11T05:30:05.328Z,23.55
2017-07-11T05:31:07.221Z,23.57
2017-07-11T05:32:09.037Z,23.57
2017-07-11T05:33:10.852Z,23.55
2017-07-11T05:34:12.751Z,23.65
2017-07-11T05:35:14.624Z,23.55
2017-07-11T05:36:16.495Z,23.68
2017-07-11T05:37:30.646Z,23.55
2017-07-11T05:38:32.540Z,23.68
2017-07-11T05:39:34.413Z,23.61
2017-07-11T05:40:36.286Z,23.63
2017-07-11T05:41:38.102Z,23.61
2017-07-11T05:42:39.941Z,23.61
2017-07-11T05:43:41.839Z,23.70
2017-07-11T05:44:43.717Z,23.72
2017-07-11T05:45:45.632Z,23.73
2017-07-11T05:46:59.738Z,23.75
2017-07-11T05:48:01.609Z,23.75
2017-07-11T05:49:03.504Z,23.73
2017-07-11T05:50:05.402Z,23.79
2017-07-11T05:51:07.246Z,23.73
2017-07-11T05:52:09.081Z,23.73
2017-07-11T05:53:10.948Z,23.70
2017-07-11T05:54:12.817Z,23.73
2017-07-11T05:55:14.693Z,23.73
2017-07-11T05:56:28.860Z,23.66
2017-07-11T05:57:30.737Z,23.70
2017-07-11T05:58:32.610Z,23.69
2017-07-11T05:59:34.479Z,23.65
2017-07-11T06:00:36.286Z,23.65
2017-07-11T06:01:38.102Z,23.63
2017-07-11T06:02:39.943Z,23.68
2017-07-11T06:03:41.819Z,23.68
2017-07-11T06:04:43.712Z,23.65
2017-07-11T06:05:57.866Z,23.55
2017-07-11T06:06:59.757Z,23.57
2017-07-11T06:08:01.633Z,23.57
2017-07-11T06:09:03.511Z,23.53
2017-07-11T06:10:05.348Z,23.58
2017-07-11T06:11:07.160Z,23.55
2017-07-11T06:12:09.039Z,23.50
2017-07-11T06:13:10.915Z,23.55
2017-07-11T06:14:12.844Z,23.66
2017-07-11T06:15:26.958Z,23.66
2017-07-11T06:16:28.836Z,23.78
2017-07-11T06:17:30.741Z,23.93
2017-07-11T06:18:32.636Z,24.09
2017-07-11T06:19:34.452Z,24.20
2017-07-11T06:20:36.291Z,24.22
2017-07-11T06:21:38.190Z,24.28
2017-07-11T06:22:40.059Z,24.45
2017-07-11T06:23:41.941Z,24.52
2017-07-11T06:24:56.119Z,24.61
2017-07-11T06:25:58.014Z,24.57
2017-07-11T06:26:59.893Z,24.71
2017-07-11T06:28:01.765Z,24.80
2017-07-11T06:29:03.603Z,24.78
2017-07-11T06:30:05.445Z,24.67
2017-07-11T06:31:07.344Z,24.73
2017-07-11T06:32:09.241Z,24.68
2017-07-11T06:33:11.117Z,24.71
2017-07-11T06:34:25.272Z,24.73
2017-07-11T06:35:27.176Z,24.69
2017-07-11T06:36:29.076Z,24.67
2017-07-11T06:37:30.977Z,24.55
2017-07-11T06:38:32.788Z,24.57
2017-07-11T06:39:34.608Z,24.60
2017-07-11T06:40:36.484Z,24.55
2017-07-11T06:41:38.386Z,24.52
2017-07-11T06:42:40.261Z,24.55
2017-07-11T06:43:54.403Z,24.57
2017-07-11T06:44:56.280Z,24.62
2017-07-11T06:45:58.179Z,24.57
2017-07-11T06:47:00.053Z,24.67
2017-07-11T06:48:01.892Z,24.71
2017-07-11T06:49:03.731Z,24.61
2017-07-11T06:50:05.626Z,24.57
2017-07-11T06:51:07.500Z,24.53
2017-07-11T06:52:09.383Z,24.55
2017-07-11T06:53:23.552Z,24.58
2017-07-11T06:54:25.492Z,24.58
2017-07-11T06:55:27.324Z,24.50
2017-07-11T06:56:29.225Z,24.39
2017-07-11T06:57:31.035Z,24.32
2017-07-11T06:58:32.882Z,24.34
2017-07-11T06:59:34.774Z,24.27
2017-07-11T07:00:36.651Z,24.22
2017-07-11T07:01:38.547Z,24.22
2017-07-11T07:02:52.720Z,24.12
2017-07-11T07:03:54.615Z,24.15
2017-07-11T07:04:56.497Z,24.15
2017-07-11T07:05:58.371Z,24.12
2017-07-11T07:07:00.208Z,23.98
2017-07-11T07:08:02.043Z,23.79
2017-07-11T07:09:03.928Z,23.76
2017-07-11T07:10:05.824Z,23.61
2017-07-11T07:11:07.702Z,23.46
2017-07-11T07:12:21.875Z,23.33
2017-07-11T07:13:23.778Z,23.16
2017-07-11T07:14:25.679Z,23.17
2017-07-11T07:15:27.559Z,22.98
2017-07-11T07:16:29.401Z,22.76
2017-07-11T07:17:31.235Z,22.52
2017-07-11T07:18:33.139Z,22.42
2017-07-11T07:19:35.038Z,22.31
2017-07-11T07:20:36.921Z,22.27
2017-07-11T07:21:51.089Z,22.28
2017-07-11T07:22:53.118Z,22.14
2017-07-11T07:23:54.998Z,22.20
2017-07-11T07:24:56.873Z,22.15
2017-07-11T07:25:58.687Z,22.14
2017-07-11T07:27:00.500Z,22.18
2017-07-11T07:28:02.401Z,22.33
2017-07-11T07:29:04.302Z,22.49
2017-07-11T07:30:06.179Z,22.49
2017-07-11T07:31:20.401Z,22.57
2017-07-11T07:32:22.302Z,22.76
2017-07-11T07:33:24.179Z,22.79
2017-07-11T07:34:26.082Z,22.85
2017-07-11T07:35:27.917Z,22.95
2017-07-11T07:36:29.728Z,23.00
2017-07-11T07:37:31.615Z,23.05
2017-07-11T07:38:33.505Z,23.05
2017-07-11T07:39:35.388Z,23.09
2017-07-11T07:40:49.562Z,23.16
2017-07-11T07:41:51.461Z,23.10
2017-07-11T07:42:53.364Z,23.25
2017-07-11T07:43:55.291Z,23.07
2017-07-11T07:44:57.072Z,23.10
2017-07-11T07:45:58.910Z,23.16
2017-07-11T07:47:00.811Z,23.13
2017-07-11T07:48:02.686Z,23.05
2017-07-11T07:49:04.567Z,23.02
2017-07-11T07:50:18.720Z,23.01
2017-07-11T07:51:20.623Z,23.17
2017-07-11T07:52:22.502Z,23.27
2017-07-11T07:53:24.404Z,23.32
2017-07-11T07:54:26.211Z,23.38
2017-07-11T07:55:28.043Z,23.43
2017-07-11T07:56:29.911Z,23.47
2017-07-11T07:57:31.814Z,23.51
2017-07-11T07:58:33.713Z,23.50
2017-07-11T07:59:47.862Z,23.53
2017-07-11T08:00:49.757Z,23.54
2017-07-11T08:01:51.643Z,23.66
2017-07-11T08:02:53.517Z,23.55
2017-07-11T08:03:55.357Z,23.65
2017-07-11T08:04:57.191Z,23.72
2017-07-11T08:05:59.071Z,23.69
2017-07-11T08:07:00.952Z,23.73
2017-07-11T08:08:02.831Z,23.72
2017-07-11T08:09:17.005Z,23.73
2017-07-11T08:10:18.905Z,23.68
2017-07-11T08:11:20.786Z,23.61
2017-07-11T08:12:22.659Z,23.68
2017-07-11T08:13:24.474Z,23.63
2017-07-11T08:14:26.313Z,23.51
2017-07-11T08:15:28.217Z,23.51
2017-07-11T08:16:30.118Z,23.36
2017-07-11T08:17:31.994Z,23.27
2017-07-11T08:18:46.145Z,23.27
2017-07-11T08:19:48.025Z,23.35
2017-07-11T08:20:49.924Z,23.35
2017-07-11T08:21:51.797Z,23.38
2017-07-11T08:22:53.607Z,23.43
2017-07-11T08:23:55.426Z,23.35
2017-07-11T08:24:57.312Z,23.32
2017-07-11T08:25:59.210Z,23.10
2017-07-11T08:27:01.092Z,23.05
2017-07-11T08:28:15.239Z,23.05
2017-07-11T08:29:17.114Z,23.12
2017-07-11T08:30:18.995Z,23.19
2017-07-11T08:31:20.898Z,23.25
2017-07-11T08:32:22.732Z,23.32
2017-07-11T08:33:24.573Z,23.25
2017-07-11T08:34:26.477Z,23.27
2017-07-11T08:35:28.449Z,23.19
2017-07-11T08:36:30.443Z,23.10
2017-07-11T08:37:44.621Z,22.90
2017-07-11T08:38:46.506Z,22.80
2017-07-11T08:39:48.388Z,22.79
2017-07-11T08:40:50.290Z,22.79
2017-07-11T08:41:52.126Z,22.80
2017-07-11T08:42:53.966Z,23.04
2017-07-11T08:43:55.870Z,22.85
2017-07-11T08:44:57.776Z,22.77
2017-07-11T08:45:59.693Z,22.72
2017-07-11T08:47:13.866Z,22.43
2017-07-11T08:48:15.745Z,22.28
2017-07-11T08:49:17.645Z,22.22
2017-07-11T08:50:19.519Z,22.06
2017-07-11T08:51:21.333Z,21.90
2017-07-11T08:52:23.143Z,21.90
2017-07-11T08:53:25.025Z,21.80
2017-07-11T08:54:26.931Z,21.65
2017-07-11T08:55:28.809Z,21.43
2017-07-11T08:56:42.983Z,21.14
2017-07-11T08:57:44.891Z,21.04
2017-07-11T08:58:46.788Z,20.92
2017-07-11T08:59:48.679Z,20.82
2017-07-11T09:00:50.480Z,20.77
2017-07-11T09:01:52.319Z,20.73
2017-07-11T09:02:54.196Z,20.51
2017-07-11T09:03:56.075Z,20.48
2017-07-11T09:04:57.956Z,20.42
2017-07-11T09:06:12.107Z,20.58
2017-07-11T09:07:14.001Z,20.67
2017-07-11T09:08:15.884Z,20.64
2017-07-11T09:09:17.785Z,20.54
2017-07-11T09:10:19.624Z,20.74
2017-07-11T09:11:21.471Z,20.80
2017-07-11T09:12:23.353Z,20.85
2017-07-11T09:13:25.255Z,20.84
2017-07-11T09:14:27.143Z,20.85
2017-07-11T09:15:41.294Z,20.87
2017-07-11T09:16:43.195Z,20.89
2017-07-11T09:17:45.077Z,20.92
2017-07-11T09:18:46.979Z,21.06
2017-07-11T09:19:48.787Z,21.03
2017-07-11T09:20:50.604Z,21.04
2017-07-11T09:21:52.506Z,21.07
2017-07-11T09:22:54.409Z,21.28
2017-07-11T09:23:56.288Z,21.32
2017-07-11T09:25:10.459Z,21.53
2017-07-11T09:26:12.362Z,21.69
2017-07-11T09:27:14.264Z,21.79
2017-07-11T09:28:16.147Z,22.00
2017-07-11T09:29:17.981Z,22.07
2017-07-11T09:30:19.794Z,22.03
2017-07-11T09:31:21.681Z,22.07
2017-07-11T09:32:23.619Z,21.91
2017-07-11T09:33:25.491Z,21.91
2017-07-11T09:34:39.642Z,21.94
2017-07-11T09:35:41.459Z,21.92
2017-07-11T09:36:43.321Z,21.80
2017-07-11T09:37:45.192Z,21.75
2017-07-11T09:38:47.233Z,21.82
2017-07-11T09:39:49.181Z,21.77
2017-07-11T09:40:50.990Z,21.82
2017-07-11T09:41:52.806Z,21.77
2017-07-11T09:42:54.679Z,21.86
2017-07-11T09:44:08.895Z,21.96
2017-07-11T09:45:10.773Z,22.05
2017-07-11T09:46:12.676Z,22.18
2017-07-11T09:47:14.579Z,22.17
2017-07-11T09:48:16.411Z,22.24
2017-07-11T09:49:18.233Z,22.31
2017-07-11T09:50:20.105Z,22.31
2017-07-11T09:51:21.982Z,22.36
2017-07-11T09:52:23.861Z,22.27
2017-07-11T09:53:38.066Z,22.24
2017-07-11T09:54:39.881Z,22.30
2017-07-11T09:55:41.761Z,22.27
2017-07-11T09:56:43.633Z,22.40
2017-07-11T09:57:45.453Z,22.33
2017-07-11T09:58:47.264Z,22.33
2017-07-11T09:59:49.147Z,22.22
2017-07-11T10:00:51.050Z,22.02
2017-07-11T10:01:52.921Z,21.90
2017-07-11T10:03:07.080Z,21.92
2017-07-11T10:04:08.976Z,22.03
2017-07-11T10:05:10.854Z,22.03
2017-07-11T10:06:12.730Z,22.02
2017-07-11T10:07:14.548Z,21.94
2017-07-11T10:08:16.365Z,21.94
2017-07-11T10:09:18.269Z,21.84
2017-07-11T10:10:20.171Z,22.02
2017-07-11T10:11:22.032Z,22.20
2017-07-11T10:12:36.245Z,22.37
2017-07-11T10:13:38.149Z,22.37
2017-07-11T10:14:40.052Z,22.46
2017-07-11T10:15:41.952Z,22.36
2017-07-11T10:16:43.788Z,22.36
2017-07-11T10:17:45.608Z,22.17
2017-07-11T10:18:47.505Z,22.28
2017-07-11T10:19:49.387Z,22.22
2017-07-11T10:20:51.270Z,22.21
2017-07-11T10:22:05.437Z,22.22
2017-07-11T10:23:07.315Z,22.25
2017-07-11T10:24:09.221Z,22.25
2017-07-11T10:25:11.125Z,22.22
2017-07-11T10:26:12.973Z,22.36
2017-07-11T10:27:14.830Z,22.36
2017-07-11T10:28:16.711Z,22.45
2017-07-11T10:29:18.592Z,22.46
2017-07-11T10:30:20.644Z,22.45
2017-07-11T10:31:34.878Z,22.47
2017-07-11T10:32:36.777Z,22.52
2017-07-11T10:33:38.654Z,22.37
2017-07-11T10:34:40.537Z,22.28
2017-07-11T10:35:42.352Z,22.33
2017-07-11T10:36:44.169Z,22.30
2017-07-11T10:37:46.046Z,22.21
2017-07-11T10:38:47.924Z,22.18
2017-07-11T10:39:49.805Z,22.02
2017-07-11T10:41:03.980Z,21.91
2017-07-11T10:42:05.885Z,21.90
2017-07-11T10:43:07.784Z,21.72
2017-07-11T10:44:09.662Z,21.68
2017-07-11T10:45:11.497Z,21.72
2017-07-11T10:46:13.314Z,21.59
2017-07-11T10:47:15.216Z,21.42
2017-07-11T10:48:17.098Z,21.29
2017-07-11T10:49:18.999Z,21.06
2017-07-11T10:50:33.172Z,20.89
2017-07-11T10:51:35.070Z,20.87
2017-07-11T10:52:36.957Z,20.76
2017-07-11T10:53:38.851Z,20.85
2017-07-11T10:54:40.662Z,20.70
2017-07-11T10:55:42.479Z,20.54
2017-07-11T10:56:44.382Z,20.58
2017-07-11T10:57:46.254Z,20.67
2017-07-11T10:58:48.136Z,20.80
2017-07-11T11:00:02.287Z,20.94
2017-07-11T11:01:04.188Z,21.03
2017-07-11T11:02:06.093Z,21.13
2017-07-11T11:03:07.990Z,21.27
2017-07-11T11:04:09.813Z,21.53
2017-07-11T11:05:11.641Z,21.74
2017-07-11T11:06:13.523Z,21.92
2017-07-11T11:07:15.427Z,22.05
2017-07-11T11:08:17.329Z,22.20
2017-07-11T11:09:31.505Z,22.31
2017-07-11T11:10:33.436Z,22.40
2017-07-11T11:11:35.331Z,22.54
2017-07-11T11:12:37.212Z,22.62
2017-07-11T11:13:39.050Z,22.64
2017-07-11T11:14:40.884Z,22.77
2017-07-11T11:15:42.788Z,22.80
2017-07-11T11:16:44.689Z,22.86
2017-07-11T11:17:46.573Z,23.02
2017-07-11T11:19:00.749Z,23.16
2017-07-11T11:20:02.648Z,23.31
2017-07-11T11:21:04.552Z,23.40
2017-07-11T11:22:06.454Z,23.55
2017-07-11T11:23:08.270Z,23.73
2017-07-11T11:24:10.108Z,23.87
2017-07-11T11:25:11.992Z,24.09
2017-07-11T11:26:13.900Z,24.20
2017-07-11T11:27:15.803Z,24.37
2017-07-11T11:28:29.980Z,24.58
2017-07-11T11:29:31.896Z,24.78
2017-07-11T11:30:33.781Z,24.96
2017-07-11T11:31:35.685Z,25.02
2017-07-11T11:32:37.524Z,25.13
2017-07-11T11:33:39.341Z,25.36
2017-07-11T11:34:41.229Z,25.55
2017-07-11T11:35:43.131Z,25.69
2017-07-11T11:36:45.035Z,25.91
2017-07-11T11:37:59.187Z,26.37
2017-07-11T11:39:01.066Z,26.58
2017-07-11T11:40:02.941Z,26.87
2017-07-11T11:41:04.824Z,27.09
2017-07-11T11:42:06.668Z,27.25
2017-07-11T11:43:08.504Z,27.50
2017-07-11T11:44:10.404Z,27.59
2017-07-11T11:45:12.291Z,27.50
2017-07-11T11:46:14.195Z,27.44
2017-07-11T11:47:28.368Z,27.54
2017-07-11T11:48:30.250Z,27.66
2017-07-11T11:49:32.137Z,27.84
2017-07-11T11:50:34.017Z,28.03
2017-07-11T11:51:35.861Z,27.94
2017-07-11T11:52:37.703Z,28.11
2017-07-11T11:53:39.581Z,28.25
2017-07-11T11:54:41.469Z,28.40
2017-07-11T11:55:43.375Z,28.54
2017-07-11T11:56:57.554Z,28.29
2017-07-11T11:57:59.462Z,28.41
2017-07-11T11:59:01.364Z,28.31
2017-07-11T12:00:03.253Z,28.44
2017-07-11T12:01:05.098Z,28.74
2017-07-11T12:02:06.944Z,28.92
2017-07-11T12:03:08.851Z,28.73
2017-07-11T12:04:10.738Z,28.54
2017-07-11T12:05:12.617Z,28.54
2017-07-11T12:06:26.775Z,28.70
2017-07-11T12:07:28.663Z,28.55
2017-07-11T12:08:30.548Z,28.37
2017-07-11T12:09:32.451Z,27.97
2017-07-11T12:10:34.265Z,27.63
2017-07-11T12:11:36.087Z,27.27
2017-07-11T12:12:37.967Z,27.04
2017-07-11T12:13:39.855Z,26.82
2017-07-11T12:14:41.760Z,26.60
2017-07-11T12:15:55.907Z,26.40
2017-07-11T12:16:57.792Z,26.26
2017-07-11T12:17:59.789Z,25.98
2017-07-11T12:19:01.692Z,25.87
2017-07-11T12:20:03.533Z,25.90
2017-07-11T12:21:05.377Z,25.69
2017-07-11T12:22:07.283Z,25.57
2017-07-11T12:23:09.185Z,25.45
2017-07-11T12:24:11.099Z,25.28
2017-07-11T12:25:25.273Z,24.85
2017-07-11T12:26:27.152Z,24.78
2017-07-11T12:27:29.038Z,24.73
2017-07-11T12:28:30.920Z,24.87
2017-07-11T12:29:32.759Z,24.95
2017-07-11T12:30:34.602Z,24.90
2017-07-11T12:31:36.489Z,24.81
2017-07-11T12:32:38.396Z,24.83
2017-07-11T12:33:40.280Z,24.77
2017-07-11T12:34:54.430Z,24.83
2017-07-11T12:35:56.305Z,25.06
2017-07-11T12:36:58.223Z,25.05
2017-07-11T12:38:00.221Z,25.17
2017-07-11T12:39:02.055Z,25.35
2017-07-11T12:40:03.876Z,25.72
2017-07-11T12:41:05.786Z,25.82
2017-07-11T12:42:07.681Z,25.91
2017-07-11T12:43:09.594Z,25.95
2017-07-11T12:44:23.776Z,26.20
2017-07-11T12:45:25.677Z,26.51
2017-07-11T12:46:27.568Z,26.91
2017-07-11T12:47:29.472Z,27.10
2017-07-11T12:48:31.288Z,27.40
2017-07-11T12:49:33.129Z,27.70
2017-07-11T12:50:35.033Z,28.00
2017-07-11T12:51:36.913Z,28.14
2017-07-11T12:52:38.793Z,28.18
2017-07-11T12:53:52.971Z,28.19
2017-07-11T12:54:54.869Z,28.40
2017-07-11T12:55:56.751Z,28.66
2017-07-11T12:56:58.633Z,28.83
2017-07-11T12:58:00.452Z,28.88
2017-07-11T12:59:02.295Z,29.09
2017-07-11T13:00:04.202Z,29.24
2017-07-11T13:01:06.110Z,29.37
2017-07-11T13:02:07.987Z,29.45
2017-07-11T13:03:22.145Z,29.26
2017-07-11T13:04:24.054Z,29.21
2017-07-11T13:05:25.959Z,29.28
2017-07-11T13:06:27.846Z,29.28
2017-07-11T13:07:29.667Z,29.19
2017-07-11T13:08:31.512Z,29.24
2017-07-11T13:09:33.413Z,29.31
2017-07-11T13:10:35.298Z,29.31
2017-07-11T13:11:37.181Z,29.30
2017-07-11T13:12:51.363Z,29.36
2017-07-11T13:13:53.277Z,29.36
2017-07-11T13:14:55.173Z,29.39
2017-07-11T13:15:57.064Z,29.51
2017-07-11T13:16:58.900Z,29.51
2017-07-11T13:18:00.721Z,29.46
2017-07-11T13:19:02.609Z,29.49
2017-07-11T13:20:04.510Z,29.61
2017-07-11T13:21:06.391Z,29.71
2017-07-11T13:22:20.567Z,29.78
2017-07-11T13:23:22.444Z,29.76
2017-07-11T13:24:24.333Z,29.58
2017-07-11T13:25:26.218Z,29.57
2017-07-11T13:26:28.068Z,29.46
2017-07-11T13:27:29.908Z,29.41
2017-07-11T13:28:31.790Z,29.30
2017-07-11T13:29:33.692Z,29.21
2017-07-11T13:30:35.599Z,29.08
2017-07-11T13:31:49.775Z,28.88
2017-07-11T13:32:51.655Z,28.68
2017-07-11T13:33:53.540Z,28.37